sensor_id;sensor_type;location;lat;lon;timestamp;pressure;altitude;pressure_sealevel;temperature;humidity
70982;BME280;58640;51.320;9.456;2023-02-16T00:03:39;100348.81;;;1.40;100.00
70982;BME280;58640;51.320;9.456;2023-02-16T00:06:05;100336.50;;;1.53;100.00
70982;BME280;58640;51.320;9.456;2023-02-16T00:08:30;100350.47;;;1.55;100.00
70982;BME280;58640;51.320;9.456;2023-02-16T00:10:58;100347.72;;;1.57;100.00
70982;BME280;58640;51.320;9.456;2023-02-16T00:13:42;100346.69;;;1.59;100.00
70982;BME280;58640;51.320;9.456;2023-02-16T00:16:18;100333.19;;;1.49;100.00
70982;BME280;58640;51.320;9.456;2023-02-16T00:18:45;100336.38;;;1.40;100.00
70982;BME280;58640;51.320;9.456;2023-02-16T00:21:11;100333.28;;;1.48;100.00
70982;BME280;58640;51.320;9.456;2023-02-16T00:23:36;100332.41;;;1.47;100.00
70982;BME280;58640;51.320;9.456;2023-02-16T00:26:01;100338.19;;;1.54;100.00
70982;BME280;58640;51.320;9.456;2023-02-16T00:28:27;100338.09;;;1.56;100.00
70982;BME280;58640;51.320;9.456;2023-02-16T00:30:52;100336.16;;;1.72;100.00
70982;BME280;58640;51.320;9.456;2023-02-16T00:33:19;100343.28;;;1.57;100.00
70982;BME280;58640;51.320;9.456;2023-02-16T00:35:45;100332.25;;;1.36;100.00
70982;BME280;58640;51.320;9.456;2023-02-16T00:38:11;100328.38;;;1.42;100.00
70982;BME280;58640;51.320;9.456;2023-02-16T00:40:37;100328.16;;;1.31;100.00
70982;BME280;58640;51.320;9.456;2023-02-16T00:43:04;100330.25;;;1.40;100.00
70982;BME280;58640;51.320;9.456;2023-02-16T00:45:31;100337.06;;;1.30;100.00
70982;BME280;58640;51.320;9.456;2023-02-16T00:47:57;100336.50;;;1.39;100.00
70982;BME280;58640;51.320;9.456;2023-02-16T00:50:26;100333.94;;;1.37;100.00
70982;BME280;58640;51.320;9.456;2023-02-16T00:52:52;100338.75;;;1.31;100.00
70982;BME280;58640;51.320;9.456;2023-02-16T00:55:20;100339.34;;;1.22;100.00
70982;BME280;58640;51.320;9.456;2023-02-16T01:00:24;100338.31;;;1.38;100.00
70982;BME280;58640;51.320;9.456;2023-02-16T01:02:54;100332.84;;;1.27;100.00
70982;BME280;58640;51.320;9.456;2023-02-16T01:05:20;100337.94;;;1.30;100.00
70982;BME280;58640;51.320;9.456;2023-02-16T01:07:46;100332.94;;;1.26;100.00
70982;BME280;58640;51.320;9.456;2023-02-16T01:10:31;100338.50;;;1.35;100.00
70982;BME280;58640;51.320;9.456;2023-02-16T01:13:15;100330.34;;;1.38;100.00
70982;BME280;58640;51.320;9.456;2023-02-16T01:15:41;100330.53;;;1.21;100.00
70982;BME280;58640;51.320;9.456;2023-02-16T01:18:07;100335.00;;;1.21;100.00
70982;BME280;58640;51.320;9.456;2023-02-16T01:20:32;100334.78;;;1.38;100.00
70982;BME280;58640;51.320;9.456;2023-02-16T01:23:00;100330.66;;;1.34;100.00
70982;BME280;58640;51.320;9.456;2023-02-16T01:25:25;100330.81;;;1.45;100.00
70982;BME280;58640;51.320;9.456;2023-02-16T01:27:51;100330.66;;;1.34;100.00
70982;BME280;58640;51.320;9.456;2023-02-16T01:30:18;100332.03;;;1.39;100.00
70982;BME280;58640;51.320;9.456;2023-02-16T01:32:45;100335.84;;;1.49;100.00
70982;BME280;58640;51.320;9.456;2023-02-16T01:35:17;100327.59;;;1.40;100.00
70982;BME280;58640;51.320;9.456;2023-02-16T01:37:42;100321.75;;;1.35;100.00
70982;BME280;58640;51.320;9.456;2023-02-16T01:40:20;100330.63;;;1.20;100.00
70982;BME280;58640;51.320;9.456;2023-02-16T01:42:59;100320.31;;;1.29;100.00
70982;BME280;58640;51.320;9.456;2023-02-16T01:45:33;100321.09;;;1.03;100.00
70982;BME280;58640;51.320;9.456;2023-02-16T01:48:06;100310.50;;;1.03;100.00
70982;BME280;58640;51.320;9.456;2023-02-16T01:50:58;100317.75;;;1.28;100.00
70982;BME280;58640;51.320;9.456;2023-02-16T01:53:31;100310.94;;;1.38;100.00
70982;BME280;58640;51.320;9.456;2023-02-16T01:56:02;100310.09;;;1.23;100.00
70982;BME280;58640;51.320;9.456;2023-02-16T01:58:49;100309.53;;;1.18;100.00
70982;BME280;58640;51.320;9.456;2023-02-16T02:01:56;100304.22;;;1.18;100.00
70982;BME280;58640;51.320;9.456;2023-02-16T02:07:17;100285.59;;;1.06;100.00
70982;BME280;58640;51.320;9.456;2023-02-16T02:09:51;100299.34;;;0.98;100.00
70982;BME280;58640;51.320;9.456;2023-02-16T02:12:45;100288.75;;;0.98;100.00
70982;BME280;58640;51.320;9.456;2023-02-16T02:15:13;100290.53;;;1.12;100.00
70982;BME280;58640;51.320;9.456;2023-02-16T02:17:39;100286.75;;;1.02;100.00
70982;BME280;58640;51.320;9.456;2023-02-16T02:20:13;100292.91;;;1.16;100.00
70982;BME280;58640;51.320;9.456;2023-02-16T02:23:08;100275.19;;;1.17;100.00
70982;BME280;58640;51.320;9.456;2023-02-16T02:34:12;100263.38;;;0.94;100.00
70982;BME280;58640;51.320;9.456;2023-02-16T02:36:49;100268.13;;;1.03;100.00
70982;BME280;58640;51.320;9.456;2023-02-16T02:39:39;100263.19;;;1.11;100.00
70982;BME280;58640;51.320;9.456;2023-02-16T02:42:23;100258.72;;;1.26;100.00
70982;BME280;58640;51.320;9.456;2023-02-16T02:44:56;100256.47;;;1.06;100.00
70982;BME280;58640;51.320;9.456;2023-02-16T02:47:39;100247.66;;;1.19;100.00
70982;BME280;58640;51.320;9.456;2023-02-16T02:52:49;100262.13;;;1.14;100.00
70982;BME280;58640;51.320;9.456;2023-02-16T02:55:14;100269.81;;;1.04;100.00
70982;BME280;58640;51.320;9.456;2023-02-16T02:57:58;100261.88;;;1.04;100.00
70982;BME280;58640;51.320;9.456;2023-02-16T03:00:44;100268.78;;;0.93;100.00
70982;BME280;58640;51.320;9.456;2023-02-16T03:05:46;100269.25;;;0.99;100.00
70982;BME280;58640;51.320;9.456;2023-02-16T03:08:15;100264.97;;;1.11;100.00
70982;BME280;58640;51.320;9.456;2023-02-16T03:10:49;100270.41;;;0.95;100.00
70982;BME280;58640;51.320;9.456;2023-02-16T03:13:43;100251.28;;;1.04;100.00
70982;BME280;58640;51.320;9.456;2023-02-16T03:16:20;100267.19;;;0.90;100.00
70982;BME280;58640;51.320;9.456;2023-02-16T03:18:47;100269.16;;;0.87;100.00
70982;BME280;58640;51.320;9.456;2023-02-16T03:21:32;100260.47;;;0.71;100.00
70982;BME280;58640;51.320;9.456;2023-02-16T03:24:22;100261.13;;;0.74;100.00
70982;BME280;58640;51.320;9.456;2023-02-16T03:27:07;100261.03;;;0.76;100.00
70982;BME280;58640;51.320;9.456;2023-02-16T03:29:52;100263.47;;;0.79;100.00
70982;BME280;58640;51.320;9.456;2023-02-16T03:32:19;100254.97;;;0.74;100.00
70982;BME280;58640;51.320;9.456;2023-02-16T03:34:45;100274.75;;;0.82;100.00
70982;BME280;58640;51.320;9.456;2023-02-16T03:37:11;100272.38;;;0.64;100.00
70982;BME280;58640;51.320;9.456;2023-02-16T03:39:37;100273.97;;;0.66;100.00
70982;BME280;58640;51.320;9.456;2023-02-16T03:42:32;100274.84;;;0.81;100.00
70982;BME280;58640;51.320;9.456;2023-02-16T03:44:57;100271.81;;;0.73;100.00
70982;BME280;58640;51.320;9.456;2023-02-16T03:47:22;100271.91;;;0.85;100.00
70982;BME280;58640;51.320;9.456;2023-02-16T03:49:48;100276.09;;;0.89;100.00
70982;BME280;58640;51.320;9.456;2023-02-16T03:52:13;100275.31;;;1.01;100.00
70982;BME280;58640;51.320;9.456;2023-02-16T03:54:38;100268.41;;;0.85;100.00
70982;BME280;58640;51.320;9.456;2023-02-16T03:57:04;100267.53;;;1.12;100.00
70982;BME280;58640;51.320;9.456;2023-02-16T03:59:29;100270.31;;;0.97;100.00
70982;BME280;58640;51.320;9.456;2023-02-16T04:01:54;100271.13;;;0.83;100.00
70982;BME280;58640;51.320;9.456;2023-02-16T04:04:20;100262.00;;;0.75;100.00
70982;BME280;58640;51.320;9.456;2023-02-16T04:06:45;100260.56;;;0.69;100.00
70982;BME280;58640;51.320;9.456;2023-02-16T04:09:10;100263.78;;;0.74;100.00
70982;BME280;58640;51.320;9.456;2023-02-16T04:11:35;100260.75;;;0.80;100.00
70982;BME280;58640;51.320;9.456;2023-02-16T04:14:19;100266.50;;;0.73;100.00
70982;BME280;58640;51.320;9.456;2023-02-16T04:16:44;100270.78;;;0.89;100.00
70982;BME280;58640;51.320;9.456;2023-02-16T04:19:10;100269.25;;;0.85;100.00
70982;BME280;58640;51.320;9.456;2023-02-16T04:21:35;100273.41;;;0.75;100.00
70982;BME280;58640;51.320;9.456;2023-02-16T04:24:00;100264.72;;;0.73;100.00
70982;BME280;58640;51.320;9.456;2023-02-16T04:26:26;100268.97;;;0.76;100.00
70982;BME280;58640;51.320;9.456;2023-02-16T04:28:51;100273.50;;;0.74;100.00
70982;BME280;58640;51.320;9.456;2023-02-16T04:31:17;100272.09;;;0.68;100.00
70982;BME280;58640;51.320;9.456;2023-02-16T04:33:42;100269.16;;;0.73;100.00
70982;BME280;58640;51.320;9.456;2023-02-16T04:36:08;100267.66;;;0.83;100.00
70982;BME280;58640;51.320;9.456;2023-02-16T04:38:33;100261.41;;;0.84;100.00
70982;BME280;58640;51.320;9.456;2023-02-16T04:40:59;100255.34;;;0.68;100.00
70982;BME280;58640;51.320;9.456;2023-02-16T04:43:24;100258.56;;;0.73;100.00
70982;BME280;58640;51.320;9.456;2023-02-16T04:45:49;100258.84;;;0.82;100.00
70982;BME280;58640;51.320;9.456;2023-02-16T04:48:15;100248.66;;;0.76;100.00
70982;BME280;58640;51.320;9.456;2023-02-16T04:50:40;100247.03;;;0.60;100.00
70982;BME280;58640;51.320;9.456;2023-02-16T04:53:05;100245.91;;;0.64;100.00
70982;BME280;58640;51.320;9.456;2023-02-16T04:55:31;100239.84;;;0.76;100.00
70982;BME280;58640;51.320;9.456;2023-02-16T04:57:56;100244.56;;;0.85;100.00
70982;BME280;58640;51.320;9.456;2023-02-16T05:00:22;100240.91;;;0.87;100.00
70982;BME280;58640;51.320;9.456;2023-02-16T05:02:47;100244.09;;;0.78;100.00
70982;BME280;58640;51.320;9.456;2023-02-16T05:05:13;100254.25;;;0.72;100.00
70982;BME280;58640;51.320;9.456;2023-02-16T05:07:38;100239.09;;;0.74;100.00
70982;BME280;58640;51.320;9.456;2023-02-16T05:10:04;100249.22;;;0.95;100.00
70982;BME280;58640;51.320;9.456;2023-02-16T05:12:29;100244.47;;;0.86;100.00
70982;BME280;58640;51.320;9.456;2023-02-16T05:15:13;100237.00;;;0.93;100.00
70982;BME280;58640;51.320;9.456;2023-02-16T05:17:39;100242.09;;;0.82;100.00
70982;BME280;58640;51.320;9.456;2023-02-16T05:20:05;100236.53;;;0.72;100.00
70982;BME280;58640;51.320;9.456;2023-02-16T05:22:30;100233.50;;;0.78;100.00
70982;BME280;58640;51.320;9.456;2023-02-16T05:25:00;100238.06;;;0.76;100.00
70982;BME280;58640;51.320;9.456;2023-02-16T05:27:28;100236.16;;;0.64;100.00
70982;BME280;58640;51.320;9.456;2023-02-16T05:29:54;100234.75;;;0.73;100.00
70982;BME280;58640;51.320;9.456;2023-02-16T05:32:19;100234.28;;;0.66;100.00
70982;BME280;58640;51.320;9.456;2023-02-16T05:34:45;100236.34;;;0.75;100.00
70982;BME280;58640;51.320;9.456;2023-02-16T05:37:12;100225.09;;;0.44;100.00
70982;BME280;58640;51.320;9.456;2023-02-16T05:39:37;100227.38;;;0.64;100.00
70982;BME280;58640;51.320;9.456;2023-02-16T05:42:03;100220.28;;;0.50;100.00
70982;BME280;58640;51.320;9.456;2023-02-16T05:44:28;100216.66;;;0.51;100.00
70982;BME280;58640;51.320;9.456;2023-02-16T05:46:53;100228.50;;;0.46;100.00
70982;BME280;58640;51.320;9.456;2023-02-16T05:49:19;100239.28;;;0.71;100.00
70982;BME280;58640;51.320;9.456;2023-02-16T05:51:44;100242.31;;;0.65;100.00
70982;BME280;58640;51.320;9.456;2023-02-16T05:54:10;100232.28;;;0.56;100.00
70982;BME280;58640;51.320;9.456;2023-02-16T05:56:41;100245.72;;;0.67;100.00
70982;BME280;58640;51.320;9.456;2023-02-16T05:59:06;100250.44;;;0.62;100.00
70982;BME280;58640;51.320;9.456;2023-02-16T06:01:32;100257.63;;;0.46;100.00
70982;BME280;58640;51.320;9.456;2023-02-16T06:03:57;100255.25;;;0.41;100.00
70982;BME280;58640;51.320;9.456;2023-02-16T06:06:22;100261.94;;;0.47;100.00
70982;BME280;58640;51.320;9.456;2023-02-16T06:08:48;100258.59;;;0.29;100.00
70982;BME280;58640;51.320;9.456;2023-02-16T06:11:13;100265.34;;;0.35;100.00
70982;BME280;58640;51.320;9.456;2023-02-16T06:13:57;100272.44;;;0.48;100.00
70982;BME280;58640;51.320;9.456;2023-02-16T06:16:25;100263.19;;;0.69;100.00
70982;BME280;58640;51.320;9.456;2023-02-16T06:18:50;100268.97;;;0.76;100.00
70982;BME280;58640;51.320;9.456;2023-02-16T06:21:16;100265.47;;;0.61;100.00
70982;BME280;58640;51.320;9.456;2023-02-16T06:23:41;100270.75;;;0.47;100.00
70982;BME280;58640;51.320;9.456;2023-02-16T06:26:06;100282.88;;;0.65;100.00
70982;BME280;58640;51.320;9.456;2023-02-16T06:28:31;100282.50;;;0.57;100.00
70982;BME280;58640;51.320;9.456;2023-02-16T06:30:57;100288.81;;;0.69;100.00
70982;BME280;58640;51.320;9.456;2023-02-16T06:33:22;100288.31;;;0.48;100.00
70982;BME280;58640;51.320;9.456;2023-02-16T06:35:47;100288.66;;;0.72;100.00
70982;BME280;58640;51.320;9.456;2023-02-16T06:38:13;100288.75;;;0.84;100.00
70982;BME280;58640;51.320;9.456;2023-02-16T06:40:38;100304.41;;;0.59;100.00
70982;BME280;58640;51.320;9.456;2023-02-16T06:43:03;100302.31;;;0.50;100.00
70982;BME280;58640;51.320;9.456;2023-02-16T06:45:29;100293.28;;;0.54;100.00
70982;BME280;58640;51.320;9.456;2023-02-16T06:47:54;100299.16;;;0.30;100.00
70982;BME280;58640;51.320;9.456;2023-02-16T06:50:19;100300.06;;;0.58;100.00
70982;BME280;58640;51.320;9.456;2023-02-16T06:52:45;100292.31;;;0.55;100.00
70982;BME280;58640;51.320;9.456;2023-02-16T06:55:10;100297.69;;;0.54;100.00
70982;BME280;58640;51.320;9.456;2023-02-16T06:57:36;100291.53;;;0.39;100.00
70982;BME280;58640;51.320;9.456;2023-02-16T07:00:03;100285.97;;;0.58;100.00
70982;BME280;58640;51.320;9.456;2023-02-16T07:02:29;100289.75;;;0.54;100.00
70982;BME280;58640;51.320;9.456;2023-02-16T07:04:55;100294.06;;;0.41;100.00
70982;BME280;58640;51.320;9.456;2023-02-16T07:07:20;100280.56;;;0.45;100.00
70982;BME280;58640;51.320;9.456;2023-02-16T07:09:45;100282.00;;;0.51;100.00
70982;BME280;58640;51.320;9.456;2023-02-16T07:12:11;100283.50;;;0.41;100.00
70982;BME280;58640;51.320;9.456;2023-02-16T07:14:36;100286.50;;;0.35;100.00
70982;BME280;58640;51.320;9.456;2023-02-16T07:17:02;100287.94;;;0.40;100.00
70982;BME280;58640;51.320;9.456;2023-02-16T07:19:29;100295.34;;;0.49;100.00
70982;BME280;58640;51.320;9.456;2023-02-16T07:22:00;100285.66;;;0.48;100.00
70982;BME280;58640;51.320;9.456;2023-02-16T07:24:26;100289.88;;;0.66;100.00
70982;BME280;58640;51.320;9.456;2023-02-16T07:26:51;100294.28;;;0.52;100.00
70982;BME280;58640;51.320;9.456;2023-02-16T07:29:17;100285.97;;;0.58;100.00
70982;BME280;58640;51.320;9.456;2023-02-16T07:31:42;100289.38;;;0.46;100.00
70982;BME280;58640;51.320;9.456;2023-02-16T07:34:08;100290.31;;;0.45;100.00
70982;BME280;58640;51.320;9.456;2023-02-16T07:36:33;100285.09;;;0.43;100.00
70982;BME280;58640;51.320;9.456;2023-02-16T07:38:58;100279.66;;;0.46;100.00
70982;BME280;58640;51.320;9.456;2023-02-16T07:41:24;100286.72;;;0.60;100.00
70982;BME280;58640;51.320;9.456;2023-02-16T07:43:49;100281.91;;;0.66;100.00
70982;BME280;58640;51.320;9.456;2023-02-16T07:46:14;100288.81;;;0.69;100.00
70982;BME280;58640;51.320;9.456;2023-02-16T07:48:40;100291.53;;;0.53;100.00
70982;BME280;58640;51.320;9.456;2023-02-16T07:51:05;100280.97;;;0.53;100.00
70982;BME280;58640;51.320;9.456;2023-02-16T07:53:31;100284.28;;;0.71;100.00
70982;BME280;58640;51.320;9.456;2023-02-16T07:55:56;100294.28;;;0.66;100.00
70982;BME280;58640;51.320;9.456;2023-02-16T07:58:21;100285.78;;;0.61;100.00
70982;BME280;58640;51.320;9.456;2023-02-16T08:00:55;100287.50;;;0.62;100.00
70982;BME280;58640;51.320;9.456;2023-02-16T08:03:22;100292.00;;;0.46;100.00
70982;BME280;58640;51.320;9.456;2023-02-16T08:05:47;100295.28;;;0.35;100.00
70982;BME280;58640;51.320;9.456;2023-02-16T08:08:12;100300.25;;;0.55;100.00
70982;BME280;58640;51.320;9.456;2023-02-16T08:10:38;100309.84;;;0.72;100.00
70982;BME280;58640;51.320;9.456;2023-02-16T08:13:03;100299.97;;;0.60;100.00
70982;BME280;58640;51.320;9.456;2023-02-16T08:15:28;100309.47;;;0.78;100.00
70982;BME280;58640;51.320;9.456;2023-02-16T08:17:53;100316.63;;;0.90;100.00
70982;BME280;58640;51.320;9.456;2023-02-16T08:20:19;100315.22;;;0.84;100.00
70982;BME280;58640;51.320;9.456;2023-02-16T08:22:44;100324.00;;;0.71;100.00
70982;BME280;58640;51.320;9.456;2023-02-16T08:25:09;100317.13;;;0.82;100.00
70982;BME280;58640;51.320;9.456;2023-02-16T08:27:35;100315.72;;;0.91;100.00
70982;BME280;58640;51.320;9.456;2023-02-16T08:30:01;100303.19;;;0.93;100.00
70982;BME280;58640;51.320;9.456;2023-02-16T08:32:26;100303.59;;;1.01;100.00
70982;BME280;58640;51.320;9.456;2023-02-16T08:34:51;100297.19;;;0.91;100.00
70982;BME280;58640;51.320;9.456;2023-02-16T08:37:17;100306.72;;;0.93;100.00
70982;BME280;58640;51.320;9.456;2023-02-16T08:39:42;100293.47;;;0.93;100.00
70982;BME280;58640;51.320;9.456;2023-02-16T08:42:10;100306.50;;;1.10;100.00
70982;BME280;58640;51.320;9.456;2023-02-16T08:44:36;100298.19;;;0.88;100.00
70982;BME280;58640;51.320;9.456;2023-02-16T08:47:01;100287.50;;;1.04;100.00
70982;BME280;58640;51.320;9.456;2023-02-16T08:49:27;100290.81;;;0.93;100.00
70982;BME280;58640;51.320;9.456;2023-02-16T08:51:55;100294.34;;;0.94;100.00
70982;BME280;58640;51.320;9.456;2023-02-16T08:54:26;100301.59;;;1.04;100.00
70982;BME280;58640;51.320;9.456;2023-02-16T08:56:57;100300.47;;;1.08;100.00
70982;BME280;58640;51.320;9.456;2023-02-16T08:59:24;100303.50;;;1.16;100.00
70982;BME280;58640;51.320;9.456;2023-02-16T09:01:50;100308.22;;;1.25;100.00
70982;BME280;58640;51.320;9.456;2023-02-16T09:04:17;100312.28;;;1.17;100.00
70982;BME280;58640;51.320;9.456;2023-02-16T09:06:45;100320.06;;;1.34;100.00
70982;BME280;58640;51.320;9.456;2023-02-16T09:09:12;100303.28;;;1.33;100.00
70982;BME280;58640;51.320;9.456;2023-02-16T09:11:38;100298.56;;;1.38;99.40
70982;BME280;58640;51.320;9.456;2023-02-16T09:14:04;100308.22;;;1.25;100.00
70982;BME280;58640;51.320;9.456;2023-02-16T09:16:30;100312.16;;;1.32;100.00
70982;BME280;58640;51.320;9.456;2023-02-16T09:19:02;100306.44;;;1.26;100.00
70982;BME280;58640;51.320;9.456;2023-02-16T09:21:29;100313.69;;;1.36;100.00
70982;BME280;58640;51.320;9.456;2023-02-16T09:24:02;100302.38;;;1.61;100.00
70982;BME280;58640;51.320;9.456;2023-02-16T09:26:32;100303.03;;;1.65;98.73
70982;BME280;58640;51.320;9.456;2023-02-16T09:28:59;100302.84;;;1.53;99.16
70982;BME280;58640;51.320;9.456;2023-02-16T09:31:27;100299.19;;;1.56;99.71
70982;BME280;58640;51.320;9.456;2023-02-16T09:34:04;100311.94;;;1.64;99.44
70982;BME280;58640;51.320;9.456;2023-02-16T09:36:30;100313.94;;;1.60;99.52
70982;BME280;58640;51.320;9.456;2023-02-16T09:38:56;100309.13;;;1.79;98.40
70982;BME280;58640;51.320;9.456;2023-02-16T09:41:56;100309.59;;;1.59;99.06
70982;BME280;58640;51.320;9.456;2023-02-16T09:44:51;100310.66;;;1.42;99.09
70982;BME280;58640;51.320;9.456;2023-02-16T09:47:23;100313.78;;;1.76;98.06
70982;BME280;58640;51.320;9.456;2023-02-16T09:49:50;100304.84;;;1.91;96.95
70982;BME280;58640;51.320;9.456;2023-02-16T09:52:27;100324.66;;;1.85;97.74
70982;BME280;58640;51.320;9.456;2023-02-16T09:54:58;100315.03;;;1.97;96.96
70982;BME280;58640;51.320;9.456;2023-02-16T10:00:04;100312.81;;;2.30;95.54
70982;BME280;58640;51.320;9.456;2023-02-16T10:02:47;100306.56;;;2.31;95.46
70982;BME280;58640;51.320;9.456;2023-02-16T10:05:19;100323.25;;;2.33;95.54
70982;BME280;58640;51.320;9.456;2023-02-16T10:08:04;100315.75;;;2.13;95.75
70982;BME280;58640;51.320;9.456;2023-02-16T10:10:47;100319.69;;;2.20;96.44
70982;BME280;58640;51.320;9.456;2023-02-16T10:13:25;100311.53;;;2.23;95.71
70982;BME280;58640;51.320;9.456;2023-02-16T10:15:55;100306.69;;;2.54;93.41
70982;BME280;58640;51.320;9.456;2023-02-16T10:18:36;100317.38;;;2.28;95.43
70982;BME280;58640;51.320;9.456;2023-02-16T10:21:10;100310.81;;;2.46;94.85
70982;BME280;58640;51.320;9.456;2023-02-16T10:24:04;100303.94;;;2.56;94.13
70982;BME280;58640;51.320;9.456;2023-02-16T10:26:41;100306.50;;;2.57;93.77
70982;BME280;58640;51.320;9.456;2023-02-16T10:29:16;100298.19;;;2.49;94.40
70982;BME280;58640;51.320;9.456;2023-02-16T10:43:03;100296.41;;;2.62;93.87
70982;BME280;58640;51.320;9.456;2023-02-16T10:48:04;100284.31;;;2.58;93.41
70982;BME280;58640;51.320;9.456;2023-02-16T10:50:47;100288.66;;;2.72;92.90
70982;BME280;58640;51.320;9.456;2023-02-16T10:53:27;100288.63;;;3.10;91.41
70982;BME280;58640;51.320;9.456;2023-02-16T10:55:57;100292.97;;;3.23;90.99
70982;BME280;58640;51.320;9.456;2023-02-16T10:58:32;100275.75;;;3.29;89.36
70982;BME280;58640;51.320;9.456;2023-02-16T11:01:09;100279.88;;;3.33;90.24
70982;BME280;58640;51.320;9.456;2023-02-16T11:03:44;100277.81;;;3.13;90.91
70982;BME280;58640;51.320;9.456;2023-02-16T11:06:15;100268.03;;;3.00;91.76
70982;BME280;58640;51.320;9.456;2023-02-16T11:08:51;100269.38;;;3.19;91.99
70982;BME280;58640;51.320;9.456;2023-02-16T11:11:18;100255.22;;;3.31;89.91
70982;BME280;58640;51.320;9.456;2023-02-16T11:13:48;100250.59;;;3.09;91.76
70982;BME280;58640;51.320;9.456;2023-02-16T11:16:21;100255.34;;;3.17;91.12
70982;BME280;58640;51.320;9.456;2023-02-16T11:18:56;100254.81;;;3.12;91.07
70982;BME280;58640;51.320;9.456;2023-02-16T11:21:42;100241.66;;;3.10;92.00
70982;BME280;58640;51.320;9.456;2023-02-16T11:24:09;100229.03;;;3.37;90.35
70982;BME280;58640;51.320;9.456;2023-02-16T11:26:36;100227.13;;;3.39;90.32
70982;BME280;58640;51.320;9.456;2023-02-16T11:29:18;100244.53;;;3.43;90.59
70982;BME280;58640;51.320;9.456;2023-02-16T11:31:44;100236.19;;;3.60;90.20
70982;BME280;58640;51.320;9.456;2023-02-16T11:37:24;100225.00;;;4.02;87.90
70982;BME280;58640;51.320;9.456;2023-02-16T11:40:02;100229.25;;;4.05;87.87
70982;BME280;58640;51.320;9.456;2023-02-16T11:42:38;100226.03;;;4.23;86.71
70982;BME280;58640;51.320;9.456;2023-02-16T11:45:21;100230.91;;;4.40;85.85
70982;BME280;58640;51.320;9.456;2023-02-16T11:47:57;100222.97;;;4.06;87.19
70982;BME280;58640;51.320;9.456;2023-02-16T11:51:07;100228.53;;;4.03;87.35
70982;BME280;58640;51.320;9.456;2023-02-16T11:53:19;100227.81;;;4.12;86.96
70982;BME280;58640;51.320;9.456;2023-02-16T11:55:47;100213.63;;;4.35;86.03
70982;BME280;58640;51.320;9.456;2023-02-16T11:58:25;100223.59;;;4.09;87.42
70982;BME280;58640;51.320;9.456;2023-02-16T12:06:38;100209.97;;;4.36;85.87
70982;BME280;58640;51.320;9.456;2023-02-16T12:09:21;100204.22;;;4.07;86.99
70982;BME280;58640;51.320;9.456;2023-02-16T12:12:08;100208.31;;;4.00;87.95
70982;BME280;58640;51.320;9.456;2023-02-16T12:17:20;100203.84;;;4.12;88.32
70982;BME280;58640;51.320;9.456;2023-02-16T12:20:02;100192.91;;;4.27;87.26
70982;BME280;58640;51.320;9.456;2023-02-16T12:22:46;100198.69;;;4.21;87.15
70982;BME280;58640;51.320;9.456;2023-02-16T12:28:10;100183.94;;;3.83;89.75
70982;BME280;58640;51.320;9.456;2023-02-16T12:33:39;100187.06;;;3.88;89.99
70982;BME280;58640;51.320;9.456;2023-02-16T12:43:53;100178.97;;;4.24;88.51
70982;BME280;58640;51.320;9.456;2023-02-16T12:46:35;100176.66;;;4.19;88.22
70982;BME280;58640;51.320;9.456;2023-02-16T12:49:19;100188.22;;;4.53;87.90
70982;BME280;58640;51.320;9.456;2023-02-16T12:51:52;100182.06;;;4.64;86.75
70982;BME280;58640;51.320;9.456;2023-02-16T12:54:26;100180.38;;;4.74;86.37
70982;BME280;58640;51.320;9.456;2023-02-16T12:57:06;100169.72;;;4.74;86.51
70982;BME280;58640;51.320;9.456;2023-02-16T12:59:48;100178.06;;;4.91;85.16
70982;BME280;58640;51.320;9.456;2023-02-16T13:02:21;100174.66;;;5.00;85.51
70982;BME280;58640;51.320;9.456;2023-02-16T13:05:06;100161.94;;;4.82;86.04
70982;BME280;58640;51.320;9.456;2023-02-16T13:07:37;100162.28;;;4.77;86.36
70982;BME280;58640;51.320;9.456;2023-02-16T13:10:39;100165.94;;;4.65;87.30
70982;BME280;58640;51.320;9.456;2023-02-16T13:13:17;100169.69;;;4.85;86.95
70982;BME280;58640;51.320;9.456;2023-02-16T13:15:59;100167.41;;;4.91;86.07
70982;BME280;58640;51.320;9.456;2023-02-16T13:18:30;100168.72;;;4.97;86.58
70982;BME280;58640;51.320;9.456;2023-02-16T13:21:13;100169.94;;;5.04;86.33
70982;BME280;58640;51.320;9.456;2023-02-16T13:24:00;100155.69;;;5.25;86.02
70982;BME280;58640;51.320;9.456;2023-02-16T13:29:01;100154.09;;;5.34;83.91
70982;BME280;58640;51.320;9.456;2023-02-16T13:31:51;100135.47;;;5.23;84.72
70982;BME280;58640;51.320;9.456;2023-02-16T13:34:50;100125.84;;;5.42;83.49
70982;BME280;58640;51.320;9.456;2023-02-16T13:40:38;100125.66;;;5.23;84.81
70982;BME280;58640;51.320;9.456;2023-02-16T13:43:17;100117.06;;;5.20;84.80
70982;BME280;58640;51.320;9.456;2023-02-16T13:45:48;100117.09;;;5.09;85.91
70982;BME280;58640;51.320;9.456;2023-02-16T13:48:24;100117.22;;;5.07;86.18
70982;BME280;58640;51.320;9.456;2023-02-16T13:51:01;100129.09;;;4.92;87.26
70982;BME280;58640;51.320;9.456;2023-02-16T13:53:37;100127.16;;;4.94;86.69
70982;BME280;58640;51.320;9.456;2023-02-16T14:01:48;100126.31;;;4.94;87.92
70982;BME280;58640;51.320;9.456;2023-02-16T14:06:45;100112.66;;;5.19;87.57
70982;BME280;58640;51.320;9.456;2023-02-16T14:14:33;100118.06;;;4.86;88.76
70982;BME280;58640;51.320;9.456;2023-02-16T14:22:18;100109.25;;;4.96;87.85
70982;BME280;58640;51.320;9.456;2023-02-16T14:24:53;100129.13;;;4.81;88.69
70982;BME280;58640;51.320;9.456;2023-02-16T14:27:43;100120.16;;;4.71;88.90
70982;BME280;58640;51.320;9.456;2023-02-16T14:31:01;100115.19;;;4.56;90.15
70982;BME280;58640;51.320;9.456;2023-02-16T14:38:27;100127.78;;;4.42;91.52
70982;BME280;58640;51.320;9.456;2023-02-16T14:40:58;100133.13;;;4.42;91.75
70982;BME280;58640;51.320;9.456;2023-02-16T14:43:45;100134.09;;;4.53;91.18
70982;BME280;58640;51.320;9.456;2023-02-16T14:46:28;100136.88;;;4.62;90.32